sensor_id;sensor_type;location;lat;lon;timestamp;P1;durP1;ratioP1;P2;durP2;ratioP2
33802;SDS011;20110;53.120;5.786;2022-08-21T00:01:26;16.17;;;6.38;;
33802;SDS011;20110;53.120;5.786;2022-08-21T00:03:54;15.88;;;6.55;;
33802;SDS011;20110;53.120;5.786;2022-08-21T00:06:21;17.35;;;6.22;;
33802;SDS011;20110;53.120;5.786;2022-08-21T00:08:49;13.85;;;5.47;;
33802;SDS011;20110;53.120;5.786;2022-08-21T00:11:17;9.80;;;5.60;;
33802;SDS011;20110;53.120;5.786;2022-08-21T00:13:43;15.02;;;6.68;;
33802;SDS011;20110;53.120;5.786;2022-08-21T00:16:09;17.05;;;5.72;;
33802;SDS011;20110;53.120;5.786;2022-08-21T00:18:35;15.45;;;5.55;;
33802;SDS011;20110;53.120;5.786;2022-08-21T00:21:02;16.75;;;7.28;;
33802;SDS011;20110;53.120;5.786;2022-08-21T00:23:29;10.98;;;6.10;;
33802;SDS011;20110;53.120;5.786;2022-08-21T00:25:55;15.55;;;6.72;;
33802;SDS011;20110;53.120;5.786;2022-08-21T00:28:21;18.85;;;7.10;;
33802;SDS011;20110;53.120;5.786;2022-08-21T00:30:46;21.77;;;7.07;;
33802;SDS011;20110;53.120;5.786;2022-08-21T00:33:12;16.15;;;7.07;;
33802;SDS011;20110;53.120;5.786;2022-08-21T00:35:39;15.00;;;7.18;;
33802;SDS011;20110;53.120;5.786;2022-08-21T00:38:07;17.30;;;7.60;;
33802;SDS011;20110;53.120;5.786;2022-08-21T00:40:39;15.45;;;6.90;;
33802;SDS011;20110;53.120;5.786;2022-08-21T00:43:20;21.67;;;8.55;;
33802;SDS011;20110;53.120;5.786;2022-08-21T00:45:52;12.77;;;8.23;;
33802;SDS011;20110;53.120;5.786;2022-08-21T00:48:20;18.58;;;9.18;;
33802;SDS011;20110;53.120;5.786;2022-08-21T00:50:56;13.98;;;8.52;;
33802;SDS011;20110;53.120;5.786;2022-08-21T00:53:27;21.23;;;8.68;;
33802;SDS011;20110;53.120;5.786;2022-08-21T00:55:55;17.23;;;9.60;;
33802;SDS011;20110;53.120;5.786;2022-08-21T00:58:23;21.15;;;8.07;;
33802;SDS011;20110;53.120;5.786;2022-08-21T01:00:52;19.50;;;9.70;;
33802;SDS011;20110;53.120;5.786;2022-08-21T01:03:20;24.02;;;10.25;;
33802;SDS011;20110;53.120;5.786;2022-08-21T01:05:50;26.30;;;9.52;;
33802;SDS011;20110;53.120;5.786;2022-08-21T01:08:17;16.23;;;9.20;;
33802;SDS011;20110;53.120;5.786;2022-08-21T01:10:45;14.63;;;8.15;;
33802;SDS011;20110;53.120;5.786;2022-08-21T01:13:13;28.88;;;9.00;;
33802;SDS011;20110;53.120;5.786;2022-08-21T01:15:44;19.05;;;9.60;;
33802;SDS011;20110;53.120;5.786;2022-08-21T01:18:17;19.10;;;9.32;;
33802;SDS011;20110;53.120;5.786;2022-08-21T01:23:32;19.60;;;9.52;;
33802;SDS011;20110;53.120;5.786;2022-08-21T01:26:02;22.30;;;9.90;;
33802;SDS011;20110;53.120;5.786;2022-08-21T01:28:30;17.40;;;10.60;;
33802;SDS011;20110;53.120;5.786;2022-08-21T01:31:05;21.35;;;10.45;;
33802;SDS011;20110;53.120;5.786;2022-08-21T01:33:34;21.55;;;10.50;;
33802;SDS011;20110;53.120;5.786;2022-08-21T01:36:00;22.67;;;10.73;;
33802;SDS011;20110;53.120;5.786;2022-08-21T01:38:27;14.35;;;9.65;;
33802;SDS011;20110;53.120;5.786;2022-08-21T01:40:53;15.38;;;9.80;;
33802;SDS011;20110;53.120;5.786;2022-08-21T01:43:18;16.88;;;9.73;;
33802;SDS011;20110;53.120;5.786;2022-08-21T01:45:44;28.17;;;10.38;;
33802;SDS011;20110;53.120;5.786;2022-08-21T01:48:10;20.40;;;10.30;;
33802;SDS011;20110;53.120;5.786;2022-08-21T01:50:36;20.00;;;10.63;;
33802;SDS011;20110;53.120;5.786;2022-08-21T01:53:02;14.40;;;10.10;;
33802;SDS011;20110;53.120;5.786;2022-08-21T01:55:30;16.20;;;9.23;;
33802;SDS011;20110;53.120;5.786;2022-08-21T01:57:56;22.80;;;9.90;;
33802;SDS011;20110;53.120;5.786;2022-08-21T02:00:24;19.38;;;9.68;;
33802;SDS011;20110;53.120;5.786;2022-08-21T02:02:50;22.90;;;10.20;;
33802;SDS011;20110;53.120;5.786;2022-08-21T02:05:17;20.67;;;9.45;;
33802;SDS011;20110;53.120;5.786;2022-08-21T02:07:45;17.90;;;9.18;;
33802;SDS011;20110;53.120;5.786;2022-08-21T02:10:18;20.05;;;10.32;;
33802;SDS011;20110;53.120;5.786;2022-08-21T02:12:51;18.40;;;9.75;;
33802;SDS011;20110;53.120;5.786;2022-08-21T02:15:18;29.55;;;9.80;;
33802;SDS011;20110;53.120;5.786;2022-08-21T02:17:46;18.05;;;8.88;;
33802;SDS011;20110;53.120;5.786;2022-08-21T02:20:23;21.58;;;9.95;;
33802;SDS011;20110;53.120;5.786;2022-08-21T02:22:56;15.48;;;8.88;;
33802;SDS011;20110;53.120;5.786;2022-08-21T02:25:23;19.25;;;9.65;;
33802;SDS011;20110;53.120;5.786;2022-08-21T02:27:52;29.45;;;9.90;;
33802;SDS011;20110;53.120;5.786;2022-08-21T02:30:23;21.77;;;9.23;;
33802;SDS011;20110;53.120;5.786;2022-08-21T02:32:56;24.00;;;9.80;;
33802;SDS011;20110;53.120;5.786;2022-08-21T02:35:23;17.08;;;9.68;;
33802;SDS011;20110;53.120;5.786;2022-08-21T02:37:50;28.88;;;9.35;;
33802;SDS011;20110;53.120;5.786;2022-08-21T02:40:21;27.73;;;10.10;;
33802;SDS011;20110;53.120;5.786;2022-08-21T02:42:52;14.65;;;8.82;;
33802;SDS011;20110;53.120;5.786;2022-08-21T02:45:19;23.30;;;9.68;;
33802;SDS011;20110;53.120;5.786;2022-08-21T02:47:49;15.57;;;9.30;;
33802;SDS011;20110;53.120;5.786;2022-08-21T02:50:23;18.13;;;9.70;;
33802;SDS011;20110;53.120;5.786;2022-08-21T02:52:56;16.80;;;9.40;;
33802;SDS011;20110;53.120;5.786;2022-08-21T02:55:23;16.60;;;10.27;;
33802;SDS011;20110;53.120;5.786;2022-08-21T02:57:52;22.02;;;9.75;;
33802;SDS011;20110;53.120;5.786;2022-08-21T03:00:20;26.05;;;10.27;;
33802;SDS011;20110;53.120;5.786;2022-08-21T03:02:48;26.80;;;10.13;;
33802;SDS011;20110;53.120;5.786;2022-08-21T03:05:15;23.90;;;10.07;;
33802;SDS011;20110;53.120;5.786;2022-08-21T03:07:42;20.13;;;9.73;;
33802;SDS011;20110;53.120;5.786;2022-08-21T03:10:09;28.52;;;9.45;;
33802;SDS011;20110;53.120;5.786;2022-08-21T03:12:35;22.88;;;10.25;;
33802;SDS011;20110;53.120;5.786;2022-08-21T03:15:06;19.15;;;9.02;;
33802;SDS011;20110;53.120;5.786;2022-08-21T03:17:35;21.92;;;9.35;;
33802;SDS011;20110;53.120;5.786;2022-08-21T03:20:01;16.25;;;8.25;;
33802;SDS011;20110;53.120;5.786;2022-08-21T03:22:29;19.23;;;10.15;;
33802;SDS011;20110;53.120;5.786;2022-08-21T03:24:55;15.77;;;8.30;;
33802;SDS011;20110;53.120;5.786;2022-08-21T03:27:22;20.98;;;8.82;;
33802;SDS011;20110;53.120;5.786;2022-08-21T03:29:52;20.85;;;9.23;;
33802;SDS011;20110;53.120;5.786;2022-08-21T03:32:19;19.52;;;8.55;;
33802;SDS011;20110;53.120;5.786;2022-08-21T03:34:45;21.42;;;9.73;;
33802;SDS011;20110;53.120;5.786;2022-08-21T03:37:12;19.20;;;9.52;;
33802;SDS011;20110;53.120;5.786;2022-08-21T03:39:38;23.95;;;9.73;;
33802;SDS011;20110;53.120;5.786;2022-08-21T03:42:06;16.10;;;8.10;;
33802;SDS011;20110;53.120;5.786;2022-08-21T03:44:33;20.20;;;8.48;;
33802;SDS011;20110;53.120;5.786;2022-08-21T03:46:59;14.90;;;8.95;;
33802;SDS011;20110;53.120;5.786;2022-08-21T03:49:26;18.20;;;8.52;;
33802;SDS011;20110;53.120;5.786;2022-08-21T03:51:52;19.90;;;8.30;;
33802;SDS011;20110;53.120;5.786;2022-08-21T03:54:18;18.70;;;9.23;;
33802;SDS011;20110;53.120;5.786;2022-08-21T03:56:45;23.00;;;8.25;;
33802;SDS011;20110;53.120;5.786;2022-08-21T03:59:11;21.83;;;9.32;;
33802;SDS011;20110;53.120;5.786;2022-08-21T04:01:37;15.68;;;7.60;;
33802;SDS011;20110;53.120;5.786;2022-08-21T04:04:04;23.80;;;9.15;;
33802;SDS011;20110;53.120;5.786;2022-08-21T04:06:31;23.73;;;9.05;;
33802;SDS011;20110;53.120;5.786;2022-08-21T04:08:57;25.85;;;9.18;;
33802;SDS011;20110;53.120;5.786;2022-08-21T04:11:23;20.25;;;8.88;;
33802;SDS011;20110;53.120;5.786;2022-08-21T04:13:49;29.35;;;8.75;;
33802;SDS011;20110;53.120;5.786;2022-08-21T04:16:15;19.38;;;9.48;;
33802;SDS011;20110;53.120;5.786;2022-08-21T04:18:41;15.48;;;9.30;;
33802;SDS011;20110;53.120;5.786;2022-08-21T04:21:07;26.63;;;9.80;;
33802;SDS011;20110;53.120;5.786;2022-08-21T04:23:36;23.48;;;9.07;;
33802;SDS011;20110;53.120;5.786;2022-08-21T04:26:02;18.35;;;10.23;;
33802;SDS011;20110;53.120;5.786;2022-08-21T04:28:28;26.08;;;10.40;;
33802;SDS011;20110;53.120;5.786;2022-08-21T04:30:54;25.00;;;9.77;;
33802;SDS011;20110;53.120;5.786;2022-08-21T04:33:21;20.42;;;9.23;;
33802;SDS011;20110;53.120;5.786;2022-08-21T04:35:48;20.90;;;9.73;;
33802;SDS011;20110;53.120;5.786;2022-08-21T04:38:15;13.88;;;9.18;;
33802;SDS011;20110;53.120;5.786;2022-08-21T04:40:41;25.45;;;10.45;;
33802;SDS011;20110;53.120;5.786;2022-08-21T04:43:07;26.08;;;9.80;;
33802;SDS011;20110;53.120;5.786;2022-08-21T04:45:36;26.35;;;9.80;;
33802;SDS011;20110;53.120;5.786;2022-08-21T04:48:10;19.77;;;11.13;;
33802;SDS011;20110;53.120;5.786;2022-08-21T04:51:02;20.13;;;9.63;;
33802;SDS011;20110;53.120;5.786;2022-08-21T04:56:08;17.48;;;9.95;;
33802;SDS011;20110;53.120;5.786;2022-08-21T04:58:40;23.42;;;10.73;;
33802;SDS011;20110;53.120;5.786;2022-08-21T05:01:08;23.38;;;9.73;;
33802;SDS011;20110;53.120;5.786;2022-08-21T05:03:42;21.05;;;10.63;;
33802;SDS011;20110;53.120;5.786;2022-08-21T05:06:11;17.63;;;9.52;;
33802;SDS011;20110;53.120;5.786;2022-08-21T05:08:39;22.65;;;10.15;;
33802;SDS011;20110;53.120;5.786;2022-08-21T05:11:08;28.30;;;8.85;;
33802;SDS011;20110;53.120;5.786;2022-08-21T05:13:35;25.27;;;9.25;;
33802;SDS011;20110;53.120;5.786;2022-08-21T05:16:01;20.50;;;10.52;;
33802;SDS011;20110;53.120;5.786;2022-08-21T05:18:27;27.05;;;10.15;;
33802;SDS011;20110;53.120;5.786;2022-08-21T05:20:54;21.05;;;9.85;;
33802;SDS011;20110;53.120;5.786;2022-08-21T05:23:20;19.38;;;9.75;;
33802;SDS011;20110;53.120;5.786;2022-08-21T05:25:46;13.13;;;9.20;;
33802;SDS011;20110;53.120;5.786;2022-08-21T05:28:11;23.17;;;10.10;;
33802;SDS011;20110;53.120;5.786;2022-08-21T05:30:38;28.27;;;9.48;;
33802;SDS011;20110;53.120;5.786;2022-08-21T05:33:04;19.90;;;9.23;;
33802;SDS011;20110;53.120;5.786;2022-08-21T05:35:32;24.35;;;9.98;;
33802;SDS011;20110;53.120;5.786;2022-08-21T05:37:59;24.58;;;9.38;;
33802;SDS011;20110;53.120;5.786;2022-08-21T05:40:25;22.08;;;8.93;;
33802;SDS011;20110;53.120;5.786;2022-08-21T05:42:54;28.05;;;8.75;;
33802;SDS011;20110;53.120;5.786;2022-08-21T05:45:22;28.33;;;8.98;;
33802;SDS011;20110;53.120;5.786;2022-08-21T05:47:49;18.35;;;8.13;;
33802;SDS011;20110;53.120;5.786;2022-08-21T05:50:15;20.98;;;8.52;;
33802;SDS011;20110;53.120;5.786;2022-08-21T05:52:41;24.70;;;9.10;;
33802;SDS011;20110;53.120;5.786;2022-08-21T05:55:07;18.42;;;8.15;;
33802;SDS011;20110;53.120;5.786;2022-08-21T05:57:33;19.88;;;8.10;;
33802;SDS011;20110;53.120;5.786;2022-08-21T05:59:58;18.55;;;8.13;;
33802;SDS011;20110;53.120;5.786;2022-08-21T06:02:24;23.83;;;9.43;;
33802;SDS011;20110;53.120;5.786;2022-08-21T06:04:50;19.20;;;8.07;;
33802;SDS011;20110;53.120;5.786;2022-08-21T06:07:16;20.70;;;7.32;;
33802;SDS011;20110;53.120;5.786;2022-08-21T06:09:41;15.35;;;7.70;;
33802;SDS011;20110;53.120;5.786;2022-08-21T06:12:08;15.52;;;7.57;;
33802;SDS011;20110;53.120;5.786;2022-08-21T06:14:37;19.55;;;8.38;;
33802;SDS011;20110;53.120;5.786;2022-08-21T06:17:09;17.52;;;8.73;;
33802;SDS011;20110;53.120;5.786;2022-08-21T06:19:37;17.95;;;8.45;;
33802;SDS011;20110;53.120;5.786;2022-08-21T06:22:03;17.25;;;7.07;;
33802;SDS011;20110;53.120;5.786;2022-08-21T06:24:30;22.48;;;6.63;;
33802;SDS011;20110;53.120;5.786;2022-08-21T06:26:56;12.77;;;6.78;;
33802;SDS011;20110;53.120;5.786;2022-08-21T06:29:22;17.52;;;6.65;;
33802;SDS011;20110;53.120;5.786;2022-08-21T06:31:50;22.42;;;7.03;;
33802;SDS011;20110;53.120;5.786;2022-08-21T06:34:17;11.98;;;6.20;;
33802;SDS011;20110;53.120;5.786;2022-08-21T06:36:43;19.42;;;6.43;;
33802;SDS011;20110;53.120;5.786;2022-08-21T06:39:09;14.05;;;7.18;;
33802;SDS011;20110;53.120;5.786;2022-08-21T06:41:35;22.77;;;6.93;;
33802;SDS011;20110;53.120;5.786;2022-08-21T06:44:01;16.10;;;6.38;;
33802;SDS011;20110;53.120;5.786;2022-08-21T06:46:28;18.88;;;6.95;;
33802;SDS011;20110;53.120;5.786;2022-08-21T06:48:55;13.48;;;5.35;;
33802;SDS011;20110;53.120;5.786;2022-08-21T06:51:22;12.18;;;5.47;;
33802;SDS011;20110;53.120;5.786;2022-08-21T06:53:50;13.23;;;5.75;;
33802;SDS011;20110;53.120;5.786;2022-08-21T06:56:17;9.30;;;6.07;;
33802;SDS011;20110;53.120;5.786;2022-08-21T06:58:43;14.20;;;5.68;;
33802;SDS011;20110;53.120;5.786;2022-08-21T07:01:10;14.38;;;5.45;;
33802;SDS011;20110;53.120;5.786;2022-08-21T07:03:37;12.88;;;5.15;;
33802;SDS011;20110;53.120;5.786;2022-08-21T07:06:06;12.43;;;5.13;;
33802;SDS011;20110;53.120;5.786;2022-08-21T07:08:34;14.20;;;5.70;;
33802;SDS011;20110;53.120;5.786;2022-08-21T07:11:02;9.80;;;4.93;;
33802;SDS011;20110;53.120;5.786;2022-08-21T07:13:34;9.02;;;4.05;;
33802;SDS011;20110;53.120;5.786;2022-08-21T07:16:00;7.53;;;3.17;;
33802;SDS011;20110;53.120;5.786;2022-08-21T07:18:26;13.23;;;3.03;;
33802;SDS011;20110;53.120;5.786;2022-08-21T07:20:52;8.52;;;2.58;;
33802;SDS011;20110;53.120;5.786;2022-08-21T07:23:25;15.23;;;2.72;;
33802;SDS011;20110;53.120;5.786;2022-08-21T07:25:55;4.88;;;1.65;;
33802;SDS011;20110;53.120;5.786;2022-08-21T07:28:21;11.75;;;3.13;;
33802;SDS011;20110;53.120;5.786;2022-08-21T07:30:50;16.55;;;3.20;;
33802;SDS011;20110;53.120;5.786;2022-08-21T07:33:19;10.80;;;2.40;;
33802;SDS011;20110;53.120;5.786;2022-08-21T07:35:45;9.35;;;2.88;;
33802;SDS011;20110;53.120;5.786;2022-08-21T07:38:11;4.35;;;2.30;;
33802;SDS011;20110;53.120;5.786;2022-08-21T07:40:37;10.93;;;2.22;;
33802;SDS011;20110;53.120;5.786;2022-08-21T07:43:03;16.13;;;2.97;;
33802;SDS011;20110;53.120;5.786;2022-08-21T07:45:29;9.57;;;2.03;;
33802;SDS011;20110;53.120;5.786;2022-08-21T07:47:56;13.30;;;2.55;;
33802;SDS011;20110;53.120;5.786;2022-08-21T07:50:21;7.13;;;2.00;;
33802;SDS011;20110;53.120;5.786;2022-08-21T07:52:48;9.50;;;2.45;;
33802;SDS011;20110;53.120;5.786;2022-08-21T07:55:15;10.60;;;2.60;;
33802;SDS011;20110;53.120;5.786;2022-08-21T07:57:43;7.60;;;2.45;;
33802;SDS011;20110;53.120;5.786;2022-08-21T08:00:11;9.48;;;2.78;;
33802;SDS011;20110;53.120;5.786;2022-08-21T08:02:44;10.95;;;2.42;;
33802;SDS011;20110;53.120;5.786;2022-08-21T08:05:14;21.20;;;3.20;;
33802;SDS011;20110;53.120;5.786;2022-08-21T08:07:42;10.98;;;2.80;;
33802;SDS011;20110;53.120;5.786;2022-08-21T08:10:08;14.38;;;2.42;;
33802;SDS011;20110;53.120;5.786;2022-08-21T08:12:36;6.60;;;2.17;;
33802;SDS011;20110;53.120;5.786;2022-08-21T08:15:05;15.98;;;2.60;;
33802;SDS011;20110;53.120;5.786;2022-08-21T08:17:34;9.63;;;2.67;;
33802;SDS011;20110;53.120;5.786;2022-08-21T08:20:01;15.32;;;3.03;;
33802;SDS011;20110;53.120;5.786;2022-08-21T08:22:27;13.80;;;2.65;;
33802;SDS011;20110;53.120;5.786;2022-08-21T08:24:53;12.35;;;2.70;;
33802;SDS011;20110;53.120;5.786;2022-08-21T08:27:20;7.32;;;2.38;;
33802;SDS011;20110;53.120;5.786;2022-08-21T08:29:47;7.72;;;3.05;;
33802;SDS011;20110;53.120;5.786;2022-08-21T08:32:14;23.55;;;3.30;;
33802;SDS011;20110;53.120;5.786;2022-08-21T08:34:39;13.77;;;2.83;;
33802;SDS011;20110;53.120;5.786;2022-08-21T08:37:06;10.73;;;3.00;;
33802;SDS011;20110;53.120;5.786;2022-08-21T08:39:34;11.23;;;3.15;;
33802;SDS011;20110;53.120;5.786;2022-08-21T08:42:11;9.52;;;2.28;;
33802;SDS011;20110;53.120;5.786;2022-08-21T08:44:47;15.00;;;3.17;;
33802;SDS011;20110;53.120;5.786;2022-08-21T08:47:16;17.27;;;3.40;;
33802;SDS011;20110;53.120;5.786;2022-08-21T08:49:49;8.90;;;2.78;;
33802;SDS011;20110;53.120;5.786;2022-08-21T08:52:28;11.48;;;2.40;;
33802;SDS011;20110;53.120;5.786;2022-08-21T08:57:42;12.43;;;2.47;;
33802;SDS011;20110;53.120;5.786;2022-08-21T09:00:14;13.57;;;2.35;;
33802;SDS011;20110;53.120;5.786;2022-08-21T09:02:45;9.73;;;2.67;;
33802;SDS011;20110;53.120;5.786;2022-08-21T09:05:26;9.43;;;2.65;;
33802;SDS011;20110;53.120;5.786;2022-08-21T09:11:05;13.10;;;3.20;;
33802;SDS011;20110;53.120;5.786;2022-08-21T09:25:00;9.45;;;2.72;;
33802;SDS011;20110;53.120;5.786;2022-08-21T09:27:47;12.40;;;2.42;;
33802;SDS011;20110;53.120;5.786;2022-08-21T09:30:13;10.15;;;2.30;;
33802;SDS011;20110;53.120;5.786;2022-08-21T09:32:40;7.95;;;2.50;;
33802;SDS011;20110;53.120;5.786;2022-08-21T09:35:09;6.43;;;1.98;;
33802;SDS011;20110;53.120;5.786;2022-08-21T09:40:56;12.50;;;2.63;;
33802;SDS011;20110;53.120;5.786;2022-08-21T09:43:16;3.33;;;1.65;;
33802;SDS011;20110;53.120;5.786;2022-08-21T09:45:45;9.73;;;2.35;;
33802;SDS011;20110;53.120;5.786;2022-08-21T09:50:50;13.32;;;2.03;;
33802;SDS011;20110;53.120;5.786;2022-08-21T09:55:58;3.10;;;1.70;;
33802;SDS011;20110;53.120;5.786;2022-08-21T09:58:48;4.80;;;1.70;;
33802;SDS011;20110;53.120;5.786;2022-08-21T10:01:23;6.40;;;2.08;;
33802;SDS011;20110;53.120;5.786;2022-08-21T10:07:07;9.52;;;1.92;;
33802;SDS011;20110;53.120;5.786;2022-08-21T10:09:36;11.95;;;2.10;;
33802;SDS011;20110;53.120;5.786;2022-08-21T10:20:27;6.18;;;1.80;;
33802;SDS011;20110;53.120;5.786;2022-08-21T10:43:32;5.15;;;1.60;;
33802;SDS011;20110;53.120;5.786;2022-08-21T10:49:43;5.80;;;1.33;;
33802;SDS011;20110;53.120;5.786;2022-08-21T10:55:18;3.63;;;1.08;;
33802;SDS011;20110;53.120;5.786;2022-08-21T10:57:54;3.65;;;1.20;;
33802;SDS011;20110;53.120;5.786;2022-08-21T11:00:58;4.22;;;1.75;;
33802;SDS011;20110;53.120;5.786;2022-08-21T11:03:42;11.63;;;1.80;;
33802;SDS011;20110;53.120;5.786;2022-08-21T11:06:32;4.75;;;1.52;;
33802;SDS011;20110;53.120;5.786;2022-08-21T11:09:08;2.97;;;1.23;;
33802;SDS011;20110;53.120;5.786;2022-08-21T11:11:42;3.42;;;1.40;;
33802;SDS011;20110;53.120;5.786;2022-08-21T11:14:55;5.57;;;1.42;;
33802;SDS011;20110;53.120;5.786;2022-08-21T11:17:32;6.00;;;1.55;;
33802;SDS011;20110;53.120;5.786;2022-08-21T11:22:54;5.23;;;1.47;;
33802;SDS011;20110;53.120;5.786;2022-08-21T11:25:35;8.32;;;1.48;;
33802;SDS011;20110;53.120;5.786;2022-08-21T11:36:38;7.70;;;1.30;;
33802;SDS011;20110;53.120;5.786;2022-08-21T11:39:32;4.50;;;1.90;;
33802;SDS011;20110;53.120;5.786;2022-08-21T11:42:14;4.30;;;1.55;;
33802;SDS011;20110;53.120;5.786;2022-08-21T11:45:19;7.18;;;1.48;;
33802;SDS011;20110;53.120;5.786;2022-08-21T11:50:31;7.88;;;1.98;;
33802;SDS011;20110;53.120;5.786;2022-08-21T11:55:52;7.97;;;1.58;;
33802;SDS011;20110;53.120;5.786;2022-08-21T11:58:38;6.57;;;1.70;;
33802;SDS011;20110;53.120;5.786;2022-08-21T12:01:28;6.95;;;1.85;;
33802;SDS011;20110;53.120;5.786;2022-08-21T12:04:03;5.10;;;1.40;;
33802;SDS011;20110;53.120;5.786;2022-08-21T12:06:52;4.57;;;1.42;;
33802;SDS011;20110;53.120;5.786;2022-08-21T12:09:29;6.97;;;2.00;;
33802;SDS011;20110;53.120;5.786;2022-08-21T12:17:56;4.75;;;1.55;;
33802;SDS011;20110;53.120;5.786;2022-08-21T12:29:50;11.80;;;1.52;;
33802;SDS011;20110;53.120;5.786;2022-08-21T12:33:17;2.90;;;1.20;;
33802;SDS011;20110;53.120;5.786;2022-08-21T12:38:04;3.45;;;1.13;;
33802;SDS011;20110;53.120;5.786;2022-08-21T12:43:28;7.95;;;1.65;;
33802;SDS011;20110;53.120;5.786;2022-08-21T12:46:19;9.23;;;1.85;;
33802;SDS011;20110;53.120;5.786;2022-08-21T12:48:53;3.63;;;1.17;;
33802;SDS011;20110;53.120;5.786;2022-08-21T12:51:54;8.32;;;1.40;;
33802;SDS011;20110;53.120;5.786;2022-08-21T12:54:45;9.20;;;1.65;;
33802;SDS011;20110;53.120;5.786;2022-08-21T12:57:22;4.03;;;1.30;;
33802;SDS011;20110;53.120;5.786;2022-08-21T12:59:56;5.50;;;1.40;;
33802;SDS011;20110;53.120;5.786;2022-08-21T13:02:33;7.43;;;1.08;;
33802;SDS011;20110;53.120;5.786;2022-08-21T13:05:07;6.05;;;1.73;;
33802;SDS011;20110;53.120;5.786;2022-08-21T13:07:52;6.68;;;2.25;;
33802;SDS011;20110;53.120;5.786;2022-08-21T13:10:20;6.80;;;1.77;;
33802;SDS011;20110;53.120;5.786;2022-08-21T13:13:12;6.17;;;1.43;;
33802;SDS011;20110;53.120;5.786;2022-08-21T13:15:50;4.53;;;1.58;;
33802;SDS011;20110;53.120;5.786;2022-08-21T13:18:32;5.65;;;1.40;;
33802;SDS011;20110;53.120;5.786;2022-08-21T13:21:05;7.25;;;1.58;;
33802;SDS011;20110;53.120;5.786;2022-08-21T13:23:38;6.68;;;2.20;;
33802;SDS011;20110;53.120;5.786;2022-08-21T13:26:15;5.55;;;1.50;;
33802;SDS011;20110;53.120;5.786;2022-08-21T13:28:45;4.40;;;1.50;;
33802;SDS011;20110;53.120;5.786;2022-08-21T13:31:15;6.20;;;1.85;;
33802;SDS011;20110;53.120;5.786;2022-08-21T13:33:51;5.68;;;1.70;;
33802;SDS011;20110;53.120;5.786;2022-08-21T13:36:21;5.72;;;1.70;;
33802;SDS011;20110;53.120;5.786;2022-08-21T13:38:54;10.13;;;1.90;;
33802;SDS011;20110;53.120;5.786;2022-08-21T13:41:21;6.10;;;1.33;;
33802;SDS011;20110;53.120;5.786;2022-08-21T13:46:31;8.18;;;1.90;;
33802;SDS011;20110;53.120;5.786;2022-08-21T13:49:01;13.68;;;1.75;;
33802;SDS011;20110;53.120;5.786;2022-08-21T13:51:30;7.57;;;1.88;;
33802;SDS011;20110;53.120;5.786;2022-08-21T13:53:57;5.55;;;1.52;;
33802;SDS011;20110;53.120;5.786;2022-08-21T13:58:56;6.10;;;1.45;;
33802;SDS011;20110;53.120;5.786;2022-08-21T14:03:56;3.33;;;1.23;;
33802;SDS011;20110;53.120;5.786;2022-08-21T14:06:57;9.48;;;1.88;;
33802;SDS011;20110;53.120;5.786;2022-08-21T14:09:34;5.82;;;1.25;;
33802;SDS011;20110;53.120;5.786;2022-08-21T14:14:51;4.50;;;1.55;;
33802;SDS011;20110;53.120;5.786;2022-08-21T14:17:30;5.75;;;1.40;;
33802;SDS011;20110;53.120;5.786;2022-08-21T14:20:00;9.13;;;1.88;;
33802;SDS011;20110;53.120;5.786;2022-08-21T14:22:30;2.55;;;1.17;;
33802;SDS011;20110;53.120;5.786;2022-08-21T14:25:00;3.85;;;1.70;;
33802;SDS011;20110;53.120;5.786;2022-08-21T14:27:29;10.57;;;1.27;;
33802;SDS011;20110;53.120;5.786;2022-08-21T14:29:58;3.95;;;1.77;;
33802;SDS011;20110;53.120;5.786;2022-08-21T14:32:30;9.82;;;1.70;;
33802;SDS011;20110;53.120;5.786;2022-08-21T14:35:05;8.00;;;1.50;;
33802;SDS011;20110;53.120;5.786;2022-08-21T14:37:32;8.52;;;1.90;;
33802;SDS011;20110;53.120;5.786;2022-08-21T14:39:58;7.03;;;2.05;;
33802;SDS011;20110;53.120;5.786;2022-08-21T14:42:24;5.72;;;1.42;;
33802;SDS011;20110;53.120;5.786;2022-08-21T14:44:50;8.75;;;1.77;;
33802;SDS011;20110;53.120;5.786;2022-08-21T14:47:20;5.70;;;1.65;;
33802;SDS011;20110;53.120;5.786;2022-08-21T14:49:46;10.23;;;2.20;;
33802;SDS011;20110;53.120;5.786;2022-08-21T14:52:11;8.45;;;1.50;;
33802;SDS011;20110;53.120;5.786;2022-08-21T14:54:37;9.85;;;1.92;;
33802;SDS011;20110;53.120;5.786;2022-08-21T14:57:05;10.98;;;1.98;;
33802;SDS011;20110;53.120;5.786;2022-08-21T14:59:34;5.70;;;1.85;;
33802;SDS011;20110;53.120;5.786;2022-08-21T15:02:02;8.63;;;2.15;;
33802;SDS011;20110;53.120;5.786;2022-08-21T15:04:32;11.73;;;2.10;;
33802;SDS011;20110;53.120;5.786;2022-08-21T15:06:59;7.95;;;1.73;;
33802;SDS011;20110;53.120;5.786;2022-08-21T15:09:25;7.03;;;1.60;;
33802;SDS011;20110;53.120;5.786;2022-08-21T15:11:52;12.05;;;1.90;;
33802;SDS011;20110;53.120;5.786;2022-08-21T15:14:23;6.05;;;1.65;;
33802;SDS011;20110;53.120;5.786;2022-08-21T15:16:52;8.05;;;1.92;;
33802;SDS011;20110;53.120;5.786;2022-08-21T15:19:18;5.80;;;1.88;;
33802;SDS011;20110;53.120;5.786;2022-08-21T15:21:44;8.30;;;1.95;;
33802;SDS011;20110;53.120;5.786;2022-08-21T15:24:10;8.90;;;1.63;;
33802;SDS011;20110;53.120;5.786;2022-08-21T15:26:36;6.38;;;1.65;;
33802;SDS011;20110;53.120;5.786;2022-08-21T15:29:02;6.47;;;2.08;;
33802;SDS011;20110;53.120;5.786;2022-08-21T15:31:31;9.45;;;1.45;;
33802;SDS011;20110;53.120;5.786;2022-08-21T15:33:58;8.18;;;1.88;;
33802;SDS011;20110;53.120;5.786;2022-08-21T15:36:24;8.45;;;2.63;;
33802;SDS011;20110;53.120;5.786;2022-08-21T15:38:50;13.57;;;2.10;;
33802;SDS011;20110;53.120;5.786;2022-08-21T15:41:16;9.15;;;1.92;;
33802;SDS011;20110;53.120;5.786;2022-08-21T15:43:50;7.30;;;1.85;;
33802;SDS011;20110;53.120;5.786;2022-08-21T15:46:18;8.40;;;1.88;;
33802;SDS011;20110;53.120;5.786;2022-08-21T15:48:46;9.10;;;1.63;;
33802;SDS011;20110;53.120;5.786;2022-08-21T15:51:12;4.65;;;1.77;;
33802;SDS011;20110;53.120;5.786;2022-08-21T15:53:41;7.50;;;1.63;;
33802;SDS011;20110;53.120;5.786;2022-08-21T15:56:28;5.03;;;1.60;;
33802;SDS011;20110;53.120;5.786;2022-08-21T15:59:00;5.80;;;1.55;;
33802;SDS011;20110;53.120;5.786;2022-08-21T16:01:30;5.53;;;1.50;;
33802;SDS011;20110;53.120;5.786;2022-08-21T16:03:57;2.55;;;1.48;;
33802;SDS011;20110;53.120;5.786;2022-08-21T16:06:23;5.85;;;1.35;;
33802;SDS011;20110;53.120;5.786;2022-08-21T16:08:49;4.78;;;1.65;;
33802;SDS011;20110;53.120;5.786;2022-08-21T16:11:15;12.07;;;1.67;;
33802;SDS011;20110;53.120;5.786;2022-08-21T16:13:42;13.43;;;1.90;;
33802;SDS011;20110;53.120;5.786;2022-08-21T16:16:11;12.07;;;2.20;;
33802;SDS011;20110;53.120;5.786;2022-08-21T16:18:48;4.35;;;1.92;;
33802;SDS011;20110;53.120;5.786;2022-08-21T16:21:16;7.70;;;1.58;;
33802;SDS011;20110;53.120;5.786;2022-08-21T16:23:43;4.97;;;1.50;;
33802;SDS011;20110;53.120;5.786;2022-08-21T16:26:09;4.15;;;1.70;;
33802;SDS011;20110;53.120;5.786;2022-08-21T16:28:38;7.05;;;2.03;;
33802;SDS011;20110;53.120;5.786;2022-08-21T16:31:07;5.85;;;1.60;;
33802;SDS011;20110;53.120;5.786;2022-08-21T16:33:38;9.48;;;1.83;;
33802;SDS011;20110;53.120;5.786;2022-08-21T16:36:13;7.45;;;1.90;;
33802;SDS011;20110;53.120;5.786;2022-08-21T16:38:39;5.40;;;2.33;;
33802;SDS011;20110;53.120;5.786;2022-08-21T16:41:08;10.10;;;2.08;;
33802;SDS011;20110;53.120;5.786;2022-08-21T16:43:42;7.28;;;2.42;;
33802;SDS011;20110;53.120;5.786;2022-08-21T16:46:10;10.85;;;1.65;;
33802;SDS011;20110;53.120;5.786;2022-08-21T16:48:40;4.25;;;1.45;;
33802;SDS011;20110;53.120;5.786;2022-08-21T16:51:09;7.75;;;1.83;;
33802;SDS011;20110;53.120;5.786;2022-08-21T16:53:36;5.65;;;2.10;;